Flight Track Log - Related Links

Times and Time Zones

All times are in EST time to prevent confusion due to time zone crossing. See the OPT438 flight status page for this flight to view local times or setup timezone preferences in your user account.

Time Position Orientation Groundspeed Altitude Reporting Facility
EST Latitude Longitude Course Direction KTS MPH feet Rate Location/Type
Sun 10:05:35 AM 34.8956 -85.1428 172° South 300 345 7,600  Level Atlanta Center
Sun 10:06:35 AM 34.8378 -85.0561 129° Southeast 311 358 10,100 2,250 Climbing Atlanta Center
Sun 10:07:35 AM 34.7717 -84.9542 128° Southeast 347 399 12,100 2,050 Climbing Atlanta Center
Sun 10:08:35 AM 34.6975 -84.8472 130° Southeast 388 447 14,200 1,950 Climbing Atlanta Center
Sun 10:09:00 AM 34.5407 -84.6457 172° South  Level FlightAware Approximate
Sun 10:09:35 AM 34.6167 -84.7203 128° Southeast 420 483 16,000  Level Atlanta Center
Sun 10:10:00 AM 34.4290 -84.6270 172° South  Level FlightAware Approximate
Sun 10:10:35 AM 34.5150 -84.6514 151° Southeast 413 475 16,000  Level Atlanta Center
Sun 10:11:35 AM 34.4044 -84.6228 168° South 408 470 17,000 1,150 Climbing Atlanta Center
Sun 10:12:35 AM 34.2897 -84.5969 169° South 418 481 18,300 1,400 Climbing Atlanta Center
Sun 10:13:35 AM 34.1689 -84.5661 168° South 437 503 19,800 1,450 Climbing Atlanta Center
Sun 10:14:35 AM 34.0561 -84.5403 169° South 450 518 21,200 1,450 Climbing Atlanta Center
Sun 10:15:35 AM 33.9186 -84.5094 169° South 456 525 22,700 1,500 Climbing Atlanta Center
Sun 10:16:35 AM 33.7933 -84.4786 168° South 461 531 24,200 1,500 Climbing Atlanta Center
Sun 10:17:35 AM 33.6664 -84.4456 168° South 461 531 25,700 1,400 Climbing Atlanta Center
Sun 10:18:35 AM 33.5494 -84.3753 153° Southeast 467 537 27,000 1,150 Climbing Atlanta Center
Sun 10:19:35 AM 33.4392 -84.2778 144° Southeast 492 566 28,000 1,050 Climbing Atlanta Center
Sun 10:20:35 AM 33.3244 -84.1831 145° Southeast 497 572 29,100 1,050 Climbing Atlanta Center
Sun 10:21:35 AM 33.2119 -84.0858 144° Southeast 497 572 30,100 1,000 Climbing Atlanta Center
Sun 10:22:35 AM 33.0969 -83.9917 146° Southeast 497 572 31,100 950 Climbing Atlanta Center
Sun 10:23:35 AM 32.9969 -83.9050 144° Southeast 497 572 32,000 900 Climbing Atlanta Center
Sun 10:24:35 AM 32.8839 -83.8111 145° Southeast 497 572 32,900 950 Climbing Atlanta Center
Sun 10:25:35 AM 32.7711 -83.7153 144° Southeast 497 572 33,900 1,000 Climbing Atlanta Center
Sun 10:26:35 AM 32.6581 -83.6194 144° Southeast 497 572 34,900 550 Climbing Atlanta Center
Sun 10:27:35 AM 32.5347 -83.5608 158° South 490 564 35,000 30 Climbing Atlanta Center
Sun 10:29:58 AM 32.2703 -83.3225 143° Southeast 497 572 35,000  Level Jacksonville Center
Sun 10:30:58 AM 32.1578 -83.1992 137° Southeast 502 578 35,000  Level Jacksonville Center
Sun 10:31:58 AM 32.0558 -83.0839 136° Southeast 502 578 35,000  Level Jacksonville Center
Sun 10:32:58 AM 31.9556 -82.9733 137° Southeast 502 578 35,000  Level Jacksonville Center
Sun 10:33:58 AM 31.8575 -82.8608 136° Southeast 502 578 35,000  Level Jacksonville Center
Sun 10:34:58 AM 31.7553 -82.7461 136° Southeast 502 578 35,000  Level Jacksonville Center
Sun 10:35:58 AM 31.6528 -82.6386 138° Southeast 502 578 35,000  Level Jacksonville Center
Sun 10:36:58 AM 31.5522 -82.5244 136° Southeast 502 578 35,000  Level Jacksonville Center
Sun 10:37:58 AM 31.4411 -82.4275 143° Southeast 502 578 35,000 -150 Level Jacksonville Center
Sun 10:38:58 AM 31.3303 -82.3381 145° Southeast 497 572 34,700 -500 Descending Jacksonville Center
Sun 10:39:58 AM 31.2211 -82.2489 145° Southeast 491 565 34,000 -350 Descending Jacksonville Center
Sun 10:40:58 AM 31.1142 -82.1572 144° Southeast 491 565 34,000  Level Jacksonville Center
Sun 10:41:58 AM 31.0050 -82.0661 144° Southeast 486 559 34,000  Level Jacksonville Center
Sun 10:42:58 AM 30.8958 -81.9750 144° Southeast 486 559 34,000  Level Jacksonville Center
Sun 10:43:58 AM 30.7867 -81.8817 144° Southeast 486 559 34,000  Level Jacksonville Center
Sun 10:44:58 AM 30.6772 -81.7911 145° Southeast 486 559 34,000  Level Jacksonville Center
Sun 10:45:58 AM 30.5806 -81.7103 144° Southeast 486 559 34,000  Level Jacksonville Center
Sun 10:46:58 AM 30.4711 -81.6200 145° Southeast 486 559 34,000  Level Jacksonville Center
Sun 10:47:58 AM 30.3617 -81.5300 145° Southeast 486 559 34,000  Level Jacksonville Center
Sun 10:48:58 AM 30.2419 -81.4717 157° South 476 548 34,000  Level Jacksonville Center
Sun 10:49:58 AM 30.1183 -81.4278 163° South 461 531 34,000  Level Jacksonville Center
Sun 10:50:58 AM 29.9925 -81.3792 161° South 468 539 34,000  Level Jacksonville Center
Sun 10:51:58 AM 29.8747 -81.3261 159° South 468 539 34,000  Level Jacksonville Center
Sun 10:52:58 AM 29.7550 -81.2611 155° Southeast 468 539 34,000  Level Jacksonville Center
Sun 10:55:27 AM 29.4606 -81.0931 154° Southeast 476 548 34,000  Level Miami Center
Sun 10:56:27 AM 29.3250 -81.0236 156° South 483 556 34,000  Level Miami Center
Sun 10:57:27 AM 29.2058 -80.9597 155° Southeast 478 550 34,000  Level Miami Center
Sun 10:58:27 AM 29.0869 -80.8911 153° Southeast 478 550 34,000  Level Miami Center
Sun 10:59:27 AM 28.9678 -80.8275 155° Southeast 478 550 34,000  Level Miami Center
Sun 11:00:27 AM 28.8528 -80.7617 153° Southeast 478 550 34,000 -100 Level Miami Center
Sun 11:01:27 AM 28.7458 -80.7036 155° Southeast 478 550 33,800 -1,000 Descending Miami Center
Sun 11:02:27 AM 28.6186 -80.6186 150° Southeast 478 550 32,000 -1,850 Descending Miami Center
Sun 11:03:27 AM 28.5058 -80.5417 149° Southeast 478 550 30,100 -1,950 Descending Miami Center
Sun 11:04:27 AM 28.3903 -80.4978 162° South 456 525 28,100 -1,900 Descending Miami Center
Sun 11:05:27 AM 28.2889 -80.4617 163° South 440 506 26,300 -1,800 Descending Miami Center
Sun 11:06:27 AM 28.1811 -80.4275 164° South 418 481 24,500 -1,950 Descending Miami Center
Sun 11:07:27 AM 28.0592 -80.3861 163° South 411 473 22,400 -1,900 Descending Miami Center
Sun 11:08:27 AM 27.9494 -80.3497 164° South 411 473 20,700 -1,700 Descending Miami Center
Sun 11:09:27 AM 27.8519 -80.3161 163° South 411 473 19,000 -1,700 Descending Miami Center
Sun 11:10:27 AM 27.7361 -80.2750 163° South 406 467 17,300 -1,750 Descending Miami Center
Sun 11:11:27 AM 27.6408 -80.2464 165° South 395 455 15,500 -1,850 Descending Miami Center
Sun 11:12:27 AM 27.5308 -80.2106 164° South 384 442 13,600 -1,750 Descending Miami Center
Sun 11:13:27 AM 27.4356 -80.1772 163° South 367 422 12,000 -1,550 Descending Miami Center
Sun 11:14:27 AM 27.3486 -80.1467 163° South 345 397 10,500 -1,100 Descending Miami Center
Sun 11:15:27 AM 27.2739 -80.1353 172° South 316 364 9,800 -1,050 Descending Miami Center
Sun 11:16:27 AM 27.1906 -80.1236 173° South 311 358 8,400 -1,650 Descending Miami Center
Sun 11:17:27 AM 27.1008 -80.1117 173° South 298 343 6,500 -1,700 Descending Miami Center
Sun 11:18:27 AM 27.0197 -80.1000 173° South 293 337 5,000 -1,250 Descending Miami Center
Sun 11:19:27 AM 26.9450 -80.0886 172° South 287 330 4,000 -500 Descending Miami Center
Sun 11:20:27 AM 26.8825 -80.0800 173° South 267 307 4,000 -150 Level Miami Center
Sun 11:21:27 AM 26.8192 -80.1039 199° South 252 290 3,700 -1,150 Descending Miami Center
Sun 11:22:27 AM 26.7742 -80.1514 223° Southwest 228 262 1,700 -2,000 Descending Miami Center
Sun 11:24:00 AM 26.6832 -80.0956 270° West  Level Estimated
Sun 11:31:00 AM 26.6832 -80.0956 110° East  Level Estimated
Sun 11:32:00 AM 26.6832 -80.0956 110° East  Level Estimated
Sun 11:33:00 AM 26.6832 -80.0956 110° East  Level Estimated

Login

Don't have an account? Register now (free) for customized features, flight alerts, and more!